sensor_id;sensor_type;location;lat;lon;timestamp;P1;durP1;ratioP1;P2;durP2;ratioP2
81546;SDS011;71078;48.358;10.960;2023-07-16T00:01:57;12.23;;;4.68;;
81546;SDS011;71078;48.358;10.960;2023-07-16T00:04:18;10.02;;;4.35;;
81546;SDS011;71078;48.358;10.960;2023-07-16T00:06:39;10.60;;;4.78;;
81546;SDS011;71078;48.358;10.960;2023-07-16T00:09:00;11.38;;;5.05;;
81546;SDS011;71078;48.358;10.960;2023-07-16T00:11:20;11.18;;;4.68;;
81546;SDS011;71078;48.358;10.960;2023-07-16T00:13:41;8.80;;;5.13;;
81546;SDS011;71078;48.358;10.960;2023-07-16T00:18:27;11.05;;;4.28;;
81546;SDS011;71078;48.358;10.960;2023-07-16T00:20:49;10.70;;;5.50;;
81546;SDS011;71078;48.358;10.960;2023-07-16T00:23:09;11.32;;;5.72;;
81546;SDS011;71078;48.358;10.960;2023-07-16T00:25:30;9.95;;;4.85;;
81546;SDS011;71078;48.358;10.960;2023-07-16T00:27:50;13.02;;;5.50;;
81546;SDS011;71078;48.358;10.960;2023-07-16T00:30:11;11.68;;;4.25;;
81546;SDS011;71078;48.358;10.960;2023-07-16T00:32:32;10.55;;;5.00;;
81546;SDS011;71078;48.358;10.960;2023-07-16T00:34:52;9.93;;;4.88;;
81546;SDS011;71078;48.358;10.960;2023-07-16T00:37:13;9.80;;;4.47;;
81546;SDS011;71078;48.358;10.960;2023-07-16T00:39:34;9.27;;;4.80;;
81546;SDS011;71078;48.358;10.960;2023-07-16T00:41:54;9.02;;;4.45;;
81546;SDS011;71078;48.358;10.960;2023-07-16T00:44:16;8.98;;;4.50;;
81546;SDS011;71078;48.358;10.960;2023-07-16T00:46:36;9.32;;;4.55;;
81546;SDS011;71078;48.358;10.960;2023-07-16T00:48:57;9.68;;;4.57;;
81546;SDS011;71078;48.358;10.960;2023-07-16T00:51:18;8.70;;;4.63;;
81546;SDS011;71078;48.358;10.960;2023-07-16T00:53:42;9.38;;;4.30;;
81546;SDS011;71078;48.358;10.960;2023-07-16T00:56:04;8.60;;;4.05;;
81546;SDS011;71078;48.358;10.960;2023-07-16T00:58:25;8.48;;;4.40;;
81546;SDS011;71078;48.358;10.960;2023-07-16T01:00:45;8.15;;;4.07;;
81546;SDS011;71078;48.358;10.960;2023-07-16T01:03:07;8.88;;;4.07;;
81546;SDS011;71078;48.358;10.960;2023-07-16T01:05:49;8.93;;;3.72;;
81546;SDS011;71078;48.358;10.960;2023-07-16T01:08:20;8.77;;;4.25;;
81546;SDS011;71078;48.358;10.960;2023-07-16T01:10:47;7.15;;;4.03;;
81546;SDS011;71078;48.358;10.960;2023-07-16T01:13:09;9.85;;;4.32;;
81546;SDS011;71078;48.358;10.960;2023-07-16T01:15:30;6.80;;;3.75;;
81546;SDS011;71078;48.358;10.960;2023-07-16T01:17:51;8.63;;;4.57;;
81546;SDS011;71078;48.358;10.960;2023-07-16T01:20:12;8.38;;;3.85;;
81546;SDS011;71078;48.358;10.960;2023-07-16T01:30:53;7.63;;;3.70;;
81546;SDS011;71078;48.358;10.960;2023-07-16T01:33:16;7.65;;;3.70;;
81546;SDS011;71078;48.358;10.960;2023-07-16T01:35:37;8.93;;;3.28;;
81546;SDS011;71078;48.358;10.960;2023-07-16T01:37:59;8.38;;;4.28;;
81546;SDS011;71078;48.358;10.960;2023-07-16T01:40:20;7.45;;;4.20;;
81546;SDS011;71078;48.358;10.960;2023-07-16T01:42:41;8.82;;;4.55;;
81546;SDS011;71078;48.358;10.960;2023-07-16T01:45:01;9.77;;;4.05;;
81546;SDS011;71078;48.358;10.960;2023-07-16T01:49:49;8.65;;;4.05;;
81546;SDS011;71078;48.358;10.960;2023-07-16T01:52:09;7.88;;;3.92;;
81546;SDS011;71078;48.358;10.960;2023-07-16T01:54:30;8.65;;;3.38;;
81546;SDS011;71078;48.358;10.960;2023-07-16T01:56:50;8.57;;;3.83;;
81546;SDS011;71078;48.358;10.960;2023-07-16T01:59:11;8.68;;;3.92;;
81546;SDS011;71078;48.358;10.960;2023-07-16T02:01:31;9.27;;;4.15;;
81546;SDS011;71078;48.358;10.960;2023-07-16T02:03:52;7.30;;;3.83;;
81546;SDS011;71078;48.358;10.960;2023-07-16T02:06:13;8.40;;;4.05;;
81546;SDS011;71078;48.358;10.960;2023-07-16T02:08:36;9.45;;;3.83;;
81546;SDS011;71078;48.358;10.960;2023-07-16T02:10:57;8.98;;;4.10;;
81546;SDS011;71078;48.358;10.960;2023-07-16T02:13:17;8.55;;;5.10;;
81546;SDS011;71078;48.358;10.960;2023-07-16T02:15:38;9.23;;;4.10;;
81546;SDS011;71078;48.358;10.960;2023-07-16T02:17:59;9.60;;;4.30;;
81546;SDS011;71078;48.358;10.960;2023-07-16T02:20:19;8.73;;;3.70;;
81546;SDS011;71078;48.358;10.960;2023-07-16T02:22:40;6.20;;;2.40;;
81546;SDS011;71078;48.358;10.960;2023-07-16T02:25:02;5.50;;;1.95;;
81546;SDS011;71078;48.358;10.960;2023-07-16T02:27:24;5.10;;;2.40;;
81546;SDS011;71078;48.358;10.960;2023-07-16T02:29:45;5.10;;;1.63;;
81546;SDS011;71078;48.358;10.960;2023-07-16T02:32:06;4.93;;;1.80;;
81546;SDS011;71078;48.358;10.960;2023-07-16T02:34:26;5.80;;;2.08;;
81546;SDS011;71078;48.358;10.960;2023-07-16T02:36:47;5.53;;;1.80;;
81546;SDS011;71078;48.358;10.960;2023-07-16T02:39:08;5.30;;;1.75;;
81546;SDS011;71078;48.358;10.960;2023-07-16T02:41:28;4.82;;;1.25;;
81546;SDS011;71078;48.358;10.960;2023-07-16T02:43:58;5.45;;;1.60;;
81546;SDS011;71078;48.358;10.960;2023-07-16T02:46:19;4.88;;;1.25;;
81546;SDS011;71078;48.358;10.960;2023-07-16T02:48:40;4.80;;;1.70;;
81546;SDS011;71078;48.358;10.960;2023-07-16T02:51:01;4.45;;;1.30;;
81546;SDS011;71078;48.358;10.960;2023-07-16T02:53:21;4.78;;;1.50;;
81546;SDS011;71078;48.358;10.960;2023-07-16T02:55:41;4.57;;;1.52;;
81546;SDS011;71078;48.358;10.960;2023-07-16T02:58:02;6.03;;;1.70;;
81546;SDS011;71078;48.358;10.960;2023-07-16T03:00:24;4.95;;;1.55;;
81546;SDS011;71078;48.358;10.960;2023-07-16T03:02:45;4.63;;;1.63;;
81546;SDS011;71078;48.358;10.960;2023-07-16T03:05:06;5.70;;;1.75;;
81546;SDS011;71078;48.358;10.960;2023-07-16T03:07:27;4.90;;;1.50;;
81546;SDS011;71078;48.358;10.960;2023-07-16T03:09:47;4.85;;;1.23;;
81546;SDS011;71078;48.358;10.960;2023-07-16T03:12:08;4.65;;;1.38;;
81546;SDS011;71078;48.358;10.960;2023-07-16T03:14:29;4.85;;;1.52;;
81546;SDS011;71078;48.358;10.960;2023-07-16T03:16:49;5.72;;;1.85;;
81546;SDS011;71078;48.358;10.960;2023-07-16T03:19:10;6.10;;;2.03;;
81546;SDS011;71078;48.358;10.960;2023-07-16T03:21:30;6.03;;;1.92;;
81546;SDS011;71078;48.358;10.960;2023-07-16T03:23:51;5.35;;;1.67;;
81546;SDS011;71078;48.358;10.960;2023-07-16T03:26:12;5.20;;;1.98;;
81546;SDS011;71078;48.358;10.960;2023-07-16T03:28:33;4.72;;;1.88;;
81546;SDS011;71078;48.358;10.960;2023-07-16T03:30:53;5.05;;;1.63;;
81546;SDS011;71078;48.358;10.960;2023-07-16T03:33:14;5.22;;;1.60;;
81546;SDS011;71078;48.358;10.960;2023-07-16T03:35:36;5.28;;;1.73;;
81546;SDS011;71078;48.358;10.960;2023-07-16T03:37:56;4.93;;;1.67;;
81546;SDS011;71078;48.358;10.960;2023-07-16T03:40:18;5.18;;;1.73;;
81546;SDS011;71078;48.358;10.960;2023-07-16T03:42:44;5.47;;;1.52;;
81546;SDS011;71078;48.358;10.960;2023-07-16T03:45:04;5.43;;;1.70;;
81546;SDS011;71078;48.358;10.960;2023-07-16T03:47:25;5.00;;;1.80;;
81546;SDS011;71078;48.358;10.960;2023-07-16T03:49:46;4.85;;;1.83;;
81546;SDS011;71078;48.358;10.960;2023-07-16T03:52:06;7.72;;;2.08;;
81546;SDS011;71078;48.358;10.960;2023-07-16T03:54:27;5.22;;;2.05;;
81546;SDS011;71078;48.358;10.960;2023-07-16T03:56:47;5.40;;;1.95;;
81546;SDS011;71078;48.358;10.960;2023-07-16T03:59:08;5.85;;;2.03;;
81546;SDS011;71078;48.358;10.960;2023-07-16T04:01:29;4.97;;;1.60;;
81546;SDS011;71078;48.358;10.960;2023-07-16T04:03:50;4.75;;;1.35;;
81546;SDS011;71078;48.358;10.960;2023-07-16T04:06:11;5.63;;;1.75;;
81546;SDS011;71078;48.358;10.960;2023-07-16T04:08:33;5.60;;;1.33;;
81546;SDS011;71078;48.358;10.960;2023-07-16T04:10:53;4.85;;;1.27;;
81546;SDS011;71078;48.358;10.960;2023-07-16T04:13:16;5.97;;;1.67;;
81546;SDS011;71078;48.358;10.960;2023-07-16T04:15:36;4.72;;;1.73;;
81546;SDS011;71078;48.358;10.960;2023-07-16T04:17:57;4.60;;;1.75;;
81546;SDS011;71078;48.358;10.960;2023-07-16T04:20:18;6.95;;;1.63;;
81546;SDS011;71078;48.358;10.960;2023-07-16T04:22:39;5.13;;;1.85;;
81546;SDS011;71078;48.358;10.960;2023-07-16T04:24:59;4.95;;;1.92;;
81546;SDS011;71078;48.358;10.960;2023-07-16T04:27:20;6.15;;;1.73;;
81546;SDS011;71078;48.358;10.960;2023-07-16T04:29:40;4.90;;;1.52;;
81546;SDS011;71078;48.358;10.960;2023-07-16T04:32:01;5.93;;;1.70;;
81546;SDS011;71078;48.358;10.960;2023-07-16T04:34:23;5.10;;;1.70;;
81546;SDS011;71078;48.358;10.960;2023-07-16T04:36:43;4.38;;;1.33;;
81546;SDS011;71078;48.358;10.960;2023-07-16T04:39:04;5.63;;;1.85;;
81546;SDS011;71078;48.358;10.960;2023-07-16T04:41:25;7.38;;;2.35;;
81546;SDS011;71078;48.358;10.960;2023-07-16T04:43:45;5.10;;;1.48;;
81546;SDS011;71078;48.358;10.960;2023-07-16T04:46:05;5.53;;;2.08;;
81546;SDS011;71078;48.358;10.960;2023-07-16T04:48:26;7.10;;;2.08;;
81546;SDS011;71078;48.358;10.960;2023-07-16T04:50:47;5.43;;;1.63;;
81546;SDS011;71078;48.358;10.960;2023-07-16T04:53:07;5.60;;;2.40;;
81546;SDS011;71078;48.358;10.960;2023-07-16T04:55:28;5.13;;;1.70;;
81546;SDS011;71078;48.358;10.960;2023-07-16T04:57:48;6.38;;;2.00;;
81546;SDS011;71078;48.358;10.960;2023-07-16T05:00:09;5.40;;;2.22;;
81546;SDS011;71078;48.358;10.960;2023-07-16T05:02:29;5.80;;;2.25;;
81546;SDS011;71078;48.358;10.960;2023-07-16T05:04:50;5.82;;;2.15;;
81546;SDS011;71078;48.358;10.960;2023-07-16T05:07:11;5.03;;;1.70;;
81546;SDS011;71078;48.358;10.960;2023-07-16T05:09:33;6.38;;;2.20;;
81546;SDS011;71078;48.358;10.960;2023-07-16T05:11:53;5.57;;;2.15;;
81546;SDS011;71078;48.358;10.960;2023-07-16T05:14:13;5.10;;;1.67;;
81546;SDS011;71078;48.358;10.960;2023-07-16T05:16:34;6.28;;;1.88;;
81546;SDS011;71078;48.358;10.960;2023-07-16T05:18:55;5.40;;;2.10;;
81546;SDS011;71078;48.358;10.960;2023-07-16T05:21:16;4.88;;;1.45;;
81546;SDS011;71078;48.358;10.960;2023-07-16T05:23:36;4.60;;;1.55;;
81546;SDS011;71078;48.358;10.960;2023-07-16T05:25:56;5.20;;;2.10;;
81546;SDS011;71078;48.358;10.960;2023-07-16T05:28:17;4.53;;;1.25;;
81546;SDS011;71078;48.358;10.960;2023-07-16T05:30:39;4.65;;;1.63;;
81546;SDS011;71078;48.358;10.960;2023-07-16T05:32:59;5.10;;;1.83;;
81546;SDS011;71078;48.358;10.960;2023-07-16T05:35:20;4.30;;;1.52;;
81546;SDS011;71078;48.358;10.960;2023-07-16T05:37:40;7.03;;;1.98;;
81546;SDS011;71078;48.358;10.960;2023-07-16T05:40:01;4.95;;;1.52;;
81546;SDS011;71078;48.358;10.960;2023-07-16T05:42:23;4.93;;;1.60;;
81546;SDS011;71078;48.358;10.960;2023-07-16T05:44:44;4.75;;;1.60;;
81546;SDS011;71078;48.358;10.960;2023-07-16T05:47:07;4.85;;;1.30;;
81546;SDS011;71078;48.358;10.960;2023-07-16T05:49:29;5.13;;;1.77;;
81546;SDS011;71078;48.358;10.960;2023-07-16T05:51:50;5.07;;;1.40;;
81546;SDS011;71078;48.358;10.960;2023-07-16T05:54:10;5.70;;;1.85;;
81546;SDS011;71078;48.358;10.960;2023-07-16T05:56:31;5.30;;;1.73;;
81546;SDS011;71078;48.358;10.960;2023-07-16T05:58:52;4.82;;;1.50;;
81546;SDS011;71078;48.358;10.960;2023-07-16T06:01:13;6.22;;;2.00;;
81546;SDS011;71078;48.358;10.960;2023-07-16T06:03:34;5.53;;;1.63;;
81546;SDS011;71078;48.358;10.960;2023-07-16T06:05:54;5.68;;;2.00;;
81546;SDS011;71078;48.358;10.960;2023-07-16T06:08:15;4.57;;;1.67;;
81546;SDS011;71078;48.358;10.960;2023-07-16T06:10:36;6.57;;;1.98;;
81546;SDS011;71078;48.358;10.960;2023-07-16T06:12:56;5.63;;;1.80;;
81546;SDS011;71078;48.358;10.960;2023-07-16T06:15:17;5.68;;;1.98;;
81546;SDS011;71078;48.358;10.960;2023-07-16T06:17:38;4.85;;;1.77;;
81546;SDS011;71078;48.358;10.960;2023-07-16T06:19:59;5.15;;;1.77;;
81546;SDS011;71078;48.358;10.960;2023-07-16T06:22:19;5.15;;;2.00;;
81546;SDS011;71078;48.358;10.960;2023-07-16T06:24:40;5.35;;;1.40;;
81546;SDS011;71078;48.358;10.960;2023-07-16T06:27:01;6.40;;;1.77;;
81546;SDS011;71078;48.358;10.960;2023-07-16T06:29:21;4.90;;;2.22;;
81546;SDS011;71078;48.358;10.960;2023-07-16T06:31:42;5.78;;;1.95;;
81546;SDS011;71078;48.358;10.960;2023-07-16T06:34:04;6.70;;;1.95;;
81546;SDS011;71078;48.358;10.960;2023-07-16T06:36:25;5.25;;;1.90;;
81546;SDS011;71078;48.358;10.960;2023-07-16T06:38:45;5.90;;;1.92;;
81546;SDS011;71078;48.358;10.960;2023-07-16T06:41:05;6.38;;;2.35;;
81546;SDS011;71078;48.358;10.960;2023-07-16T06:43:27;5.85;;;1.60;;
81546;SDS011;71078;48.358;10.960;2023-07-16T06:45:48;5.15;;;1.95;;
81546;SDS011;71078;48.358;10.960;2023-07-16T06:48:10;6.97;;;2.08;;
81546;SDS011;71078;48.358;10.960;2023-07-16T06:50:31;4.45;;;1.63;;
81546;SDS011;71078;48.358;10.960;2023-07-16T06:52:52;5.00;;;1.33;;
81546;SDS011;71078;48.358;10.960;2023-07-16T06:55:12;4.07;;;1.02;;
81546;SDS011;71078;48.358;10.960;2023-07-16T06:57:32;7.43;;;1.45;;
81546;SDS011;71078;48.358;10.960;2023-07-16T06:59:53;4.50;;;1.58;;
81546;SDS011;71078;48.358;10.960;2023-07-16T07:02:15;4.55;;;1.02;;
81546;SDS011;71078;48.358;10.960;2023-07-16T07:04:36;4.57;;;1.67;;
81546;SDS011;71078;48.358;10.960;2023-07-16T07:06:57;3.67;;;1.10;;
81546;SDS011;71078;48.358;10.960;2023-07-16T07:09:18;4.28;;;1.00;;
81546;SDS011;71078;48.358;10.960;2023-07-16T07:11:38;4.72;;;1.33;;
81546;SDS011;71078;48.358;10.960;2023-07-16T07:13:59;5.53;;;1.20;;
81546;SDS011;71078;48.358;10.960;2023-07-16T07:16:19;5.72;;;1.92;;
81546;SDS011;71078;48.358;10.960;2023-07-16T07:18:40;5.32;;;1.17;;
81546;SDS011;71078;48.358;10.960;2023-07-16T07:21:00;4.30;;;1.35;;
81546;SDS011;71078;48.358;10.960;2023-07-16T07:23:21;3.90;;;0.93;;
81546;SDS011;71078;48.358;10.960;2023-07-16T07:25:41;5.28;;;1.38;;
81546;SDS011;71078;48.358;10.960;2023-07-16T07:28:02;4.43;;;1.05;;
81546;SDS011;71078;48.358;10.960;2023-07-16T07:30:23;5.65;;;1.70;;
81546;SDS011;71078;48.358;10.960;2023-07-16T07:32:44;5.18;;;1.33;;
81546;SDS011;71078;48.358;10.960;2023-07-16T07:35:05;5.63;;;1.13;;
81546;SDS011;71078;48.358;10.960;2023-07-16T07:37:26;4.53;;;1.38;;
81546;SDS011;71078;48.358;10.960;2023-07-16T07:39:51;4.28;;;1.17;;
81546;SDS011;71078;48.358;10.960;2023-07-16T07:42:12;5.10;;;1.48;;
81546;SDS011;71078;48.358;10.960;2023-07-16T07:44:33;5.18;;;1.45;;
81546;SDS011;71078;48.358;10.960;2023-07-16T07:46:54;4.60;;;1.50;;
81546;SDS011;71078;48.358;10.960;2023-07-16T07:49:15;4.80;;;1.45;;
81546;SDS011;71078;48.358;10.960;2023-07-16T07:51:36;4.95;;;1.52;;
81546;SDS011;71078;48.358;10.960;2023-07-16T07:53:56;4.80;;;1.27;;
81546;SDS011;71078;48.358;10.960;2023-07-16T07:56:17;6.43;;;1.77;;
81546;SDS011;71078;48.358;10.960;2023-07-16T07:58:38;5.72;;;1.58;;
81546;SDS011;71078;48.358;10.960;2023-07-16T08:01:04;5.18;;;1.60;;
81546;SDS011;71078;48.358;10.960;2023-07-16T08:05:50;5.63;;;1.75;;
81546;SDS011;71078;48.358;10.960;2023-07-16T08:08:10;5.93;;;1.42;;
81546;SDS011;71078;48.358;10.960;2023-07-16T08:10:31;5.13;;;1.67;;
81546;SDS011;71078;48.358;10.960;2023-07-16T08:12:51;4.05;;;1.20;;
81546;SDS011;71078;48.358;10.960;2023-07-16T08:15:12;4.18;;;1.30;;
81546;SDS011;71078;48.358;10.960;2023-07-16T08:17:35;5.05;;;1.73;;
81546;SDS011;71078;48.358;10.960;2023-07-16T08:19:56;6.13;;;1.55;;
81546;SDS011;71078;48.358;10.960;2023-07-16T08:22:17;4.50;;;1.73;;
81546;SDS011;71078;48.358;10.960;2023-07-16T08:24:37;5.43;;;1.90;;
81546;SDS011;71078;48.358;10.960;2023-07-16T08:26:58;4.93;;;1.35;;
81546;SDS011;71078;48.358;10.960;2023-07-16T08:29:18;5.25;;;1.60;;
81546;SDS011;71078;48.358;10.960;2023-07-16T08:31:39;4.57;;;1.52;;
81546;SDS011;71078;48.358;10.960;2023-07-16T08:34:00;5.68;;;1.50;;
81546;SDS011;71078;48.358;10.960;2023-07-16T08:36:24;5.28;;;1.48;;
81546;SDS011;71078;48.358;10.960;2023-07-16T08:38:45;4.70;;;1.40;;
81546;SDS011;71078;48.358;10.960;2023-07-16T08:41:05;3.92;;;1.20;;
81546;SDS011;71078;48.358;10.960;2023-07-16T08:43:26;4.82;;;1.25;;
81546;SDS011;71078;48.358;10.960;2023-07-16T08:45:49;5.35;;;1.42;;
81546;SDS011;71078;48.358;10.960;2023-07-16T08:48:10;4.93;;;1.25;;
81546;SDS011;71078;48.358;10.960;2023-07-16T08:50:31;4.50;;;1.30;;
81546;SDS011;71078;48.358;10.960;2023-07-16T08:52:54;4.80;;;1.42;;
81546;SDS011;71078;48.358;10.960;2023-07-16T08:55:16;4.47;;;1.52;;
81546;SDS011;71078;48.358;10.960;2023-07-16T08:57:39;4.72;;;1.50;;
81546;SDS011;71078;48.358;10.960;2023-07-16T09:00:00;4.38;;;1.35;;
81546;SDS011;71078;48.358;10.960;2023-07-16T09:02:22;5.03;;;1.83;;
81546;SDS011;71078;48.358;10.960;2023-07-16T09:04:44;5.00;;;1.40;;
81546;SDS011;71078;48.358;10.960;2023-07-16T09:07:06;4.68;;;1.40;;
81546;SDS011;71078;48.358;10.960;2023-07-16T09:09:27;4.93;;;1.65;;
81546;SDS011;71078;48.358;10.960;2023-07-16T09:11:48;4.35;;;1.23;;
81546;SDS011;71078;48.358;10.960;2023-07-16T09:14:09;4.53;;;1.75;;
81546;SDS011;71078;48.358;10.960;2023-07-16T09:16:33;5.25;;;2.08;;
81546;SDS011;71078;48.358;10.960;2023-07-16T09:18:54;4.78;;;2.22;;
81546;SDS011;71078;48.358;10.960;2023-07-16T09:21:15;4.53;;;1.50;;
81546;SDS011;71078;48.358;10.960;2023-07-16T09:23:36;4.30;;;1.20;;
81546;SDS011;71078;48.358;10.960;2023-07-16T09:25:57;4.63;;;1.65;;
81546;SDS011;71078;48.358;10.960;2023-07-16T09:28:18;4.53;;;1.45;;
81546;SDS011;71078;48.358;10.960;2023-07-16T09:30:39;5.50;;;2.10;;
81546;SDS011;71078;48.358;10.960;2023-07-16T09:33:09;4.63;;;1.50;;
81546;SDS011;71078;48.358;10.960;2023-07-16T09:35:50;6.35;;;2.03;;
81546;SDS011;71078;48.358;10.960;2023-07-16T09:38:11;5.25;;;2.50;;
81546;SDS011;71078;48.358;10.960;2023-07-16T09:40:31;4.40;;;1.30;;
81546;SDS011;71078;48.358;10.960;2023-07-16T09:42:52;5.00;;;1.95;;
81546;SDS011;71078;48.358;10.960;2023-07-16T09:45:17;4.63;;;1.50;;
81546;SDS011;71078;48.358;10.960;2023-07-16T09:47:39;4.90;;;1.48;;
81546;SDS011;71078;48.358;10.960;2023-07-16T09:50:01;4.28;;;1.00;;
81546;SDS011;71078;48.358;10.960;2023-07-16T09:52:22;4.85;;;1.23;;
81546;SDS011;71078;48.358;10.960;2023-07-16T09:54:45;6.30;;;1.30;;
81546;SDS011;71078;48.358;10.960;2023-07-16T09:57:06;4.53;;;1.30;;
81546;SDS011;71078;48.358;10.960;2023-07-16T09:59:29;4.60;;;1.20;;
81546;SDS011;71078;48.358;10.960;2023-07-16T10:01:51;4.57;;;1.45;;
81546;SDS011;71078;48.358;10.960;2023-07-16T10:04:14;5.20;;;1.40;;
81546;SDS011;71078;48.358;10.960;2023-07-16T10:06:48;4.20;;;1.35;;
81546;SDS011;71078;48.358;10.960;2023-07-16T10:09:10;4.07;;;1.20;;
81546;SDS011;71078;48.358;10.960;2023-07-16T10:11:36;5.28;;;1.42;;
81546;SDS011;71078;48.358;10.960;2023-07-16T10:13:57;4.10;;;1.10;;
81546;SDS011;71078;48.358;10.960;2023-07-16T10:16:21;4.25;;;1.00;;
81546;SDS011;71078;48.358;10.960;2023-07-16T10:18:49;5.50;;;1.60;;
81546;SDS011;71078;48.358;10.960;2023-07-16T10:21:13;3.88;;;1.38;;
81546;SDS011;71078;48.358;10.960;2023-07-16T10:23:40;4.57;;;1.08;;
81546;SDS011;71078;48.358;10.960;2023-07-16T10:26:04;4.82;;;1.20;;
81546;SDS011;71078;48.358;10.960;2023-07-16T10:28:29;5.43;;;1.35;;
81546;SDS011;71078;48.358;10.960;2023-07-16T10:30:50;4.15;;;1.13;;
81546;SDS011;71078;48.358;10.960;2023-07-16T10:33:11;4.68;;;1.10;;
81546;SDS011;71078;48.358;10.960;2023-07-16T10:35:34;4.43;;;1.60;;
81546;SDS011;71078;48.358;10.960;2023-07-16T10:37:56;4.50;;;1.40;;
81546;SDS011;71078;48.358;10.960;2023-07-16T10:40:16;4.20;;;1.48;;
81546;SDS011;71078;48.358;10.960;2023-07-16T10:42:37;4.50;;;1.25;;
81546;SDS011;71078;48.358;10.960;2023-07-16T10:45:02;7.40;;;1.42;;
81546;SDS011;71078;48.358;10.960;2023-07-16T10:47:31;4.68;;;1.65;;
81546;SDS011;71078;48.358;10.960;2023-07-16T10:49:54;4.20;;;1.38;;
81546;SDS011;71078;48.358;10.960;2023-07-16T10:52:14;6.07;;;1.23;;
81546;SDS011;71078;48.358;10.960;2023-07-16T10:54:35;4.47;;;1.23;;
81546;SDS011;71078;48.358;10.960;2023-07-16T10:56:56;4.38;;;1.20;;
81546;SDS011;71078;48.358;10.960;2023-07-16T10:59:17;4.22;;;1.42;;
81546;SDS011;71078;48.358;10.960;2023-07-16T11:01:38;4.30;;;1.27;;
81546;SDS011;71078;48.358;10.960;2023-07-16T11:04:06;5.18;;;1.20;;
81546;SDS011;71078;48.358;10.960;2023-07-16T11:06:27;5.53;;;1.42;;
81546;SDS011;71078;48.358;10.960;2023-07-16T11:08:48;3.88;;;1.23;;
81546;SDS011;71078;48.358;10.960;2023-07-16T11:11:09;4.03;;;1.10;;
81546;SDS011;71078;48.358;10.960;2023-07-16T11:13:32;4.05;;;1.20;;
81546;SDS011;71078;48.358;10.960;2023-07-16T11:15:54;4.65;;;1.20;;
81546;SDS011;71078;48.358;10.960;2023-07-16T11:18:15;4.53;;;1.42;;
81546;SDS011;71078;48.358;10.960;2023-07-16T11:20:35;3.85;;;1.20;;
81546;SDS011;71078;48.358;10.960;2023-07-16T11:22:59;4.60;;;1.60;;
81546;SDS011;71078;48.358;10.960;2023-07-16T11:25:23;4.57;;;1.27;;
81546;SDS011;71078;48.358;10.960;2023-07-16T11:27:44;5.03;;;1.33;;
81546;SDS011;71078;48.358;10.960;2023-07-16T11:30:05;5.32;;;1.58;;
81546;SDS011;71078;48.358;10.960;2023-07-16T11:32:31;5.70;;;1.30;;
81546;SDS011;71078;48.358;10.960;2023-07-16T11:34:53;4.45;;;1.33;;
81546;SDS011;71078;48.358;10.960;2023-07-16T11:37:14;5.03;;;1.17;;
81546;SDS011;71078;48.358;10.960;2023-07-16T11:39:35;4.40;;;1.23;;
81546;SDS011;71078;48.358;10.960;2023-07-16T11:41:56;4.30;;;1.27;;
81546;SDS011;71078;48.358;10.960;2023-07-16T11:44:19;4.65;;;1.25;;
81546;SDS011;71078;48.358;10.960;2023-07-16T11:46:39;4.82;;;1.70;;
81546;SDS011;71078;48.358;10.960;2023-07-16T11:49:00;4.78;;;1.70;;
81546;SDS011;71078;48.358;10.960;2023-07-16T11:51:21;5.30;;;1.30;;
81546;SDS011;71078;48.358;10.960;2023-07-16T11:53:41;4.70;;;1.58;;
81546;SDS011;71078;48.358;10.960;2023-07-16T11:56:02;4.18;;;1.35;;
81546;SDS011;71078;48.358;10.960;2023-07-16T11:58:23;4.90;;;1.60;;
81546;SDS011;71078;48.358;10.960;2023-07-16T12:00:43;4.30;;;1.23;;
81546;SDS011;71078;48.358;10.960;2023-07-16T12:03:04;4.85;;;1.55;;
81546;SDS011;71078;48.358;10.960;2023-07-16T12:05:25;4.50;;;1.73;;
81546;SDS011;71078;48.358;10.960;2023-07-16T12:08:01;4.43;;;1.40;;
81546;SDS011;71078;48.358;10.960;2023-07-16T12:10:22;6.20;;;1.73;;
81546;SDS011;71078;48.358;10.960;2023-07-16T12:12:43;4.15;;;1.38;;
81546;SDS011;71078;48.358;10.960;2023-07-16T12:15:04;4.47;;;1.30;;
81546;SDS011;71078;48.358;10.960;2023-07-16T12:17:25;4.38;;;1.30;;
81546;SDS011;71078;48.358;10.960;2023-07-16T12:19:46;4.30;;;1.13;;
81546;SDS011;71078;48.358;10.960;2023-07-16T12:22:07;3.92;;;1.15;;
81546;SDS011;71078;48.358;10.960;2023-07-16T12:24:28;4.20;;;1.48;;
81546;SDS011;71078;48.358;10.960;2023-07-16T12:26:49;4.50;;;1.20;;
81546;SDS011;71078;48.358;10.960;2023-07-16T12:29:10;5.53;;;1.33;;
81546;SDS011;71078;48.358;10.960;2023-07-16T12:31:30;6.63;;;1.65;;
81546;SDS011;71078;48.358;10.960;2023-07-16T12:33:52;4.10;;;1.13;;
81546;SDS011;71078;48.358;10.960;2023-07-16T12:36:14;5.05;;;1.35;;
81546;SDS011;71078;48.358;10.960;2023-07-16T12:38:36;4.22;;;1.00;;
81546;SDS011;71078;48.358;10.960;2023-07-16T12:40:56;6.35;;;1.25;;
81546;SDS011;71078;48.358;10.960;2023-07-16T12:43:17;4.75;;;1.65;;
81546;SDS011;71078;48.358;10.960;2023-07-16T12:45:38;4.53;;;1.35;;
81546;SDS011;71078;48.358;10.960;2023-07-16T12:47:59;5.45;;;1.63;;
81546;SDS011;71078;48.358;10.960;2023-07-16T12:50:19;4.70;;;1.15;;
81546;SDS011;71078;48.358;10.960;2023-07-16T12:52:40;4.03;;;1.38;;
81546;SDS011;71078;48.358;10.960;2023-07-16T12:55:00;4.15;;;1.50;;
81546;SDS011;71078;48.358;10.960;2023-07-16T12:57:21;4.05;;;1.20;;
81546;SDS011;71078;48.358;10.960;2023-07-16T12:59:42;5.35;;;1.00;;
81546;SDS011;71078;48.358;10.960;2023-07-16T13:02:02;3.75;;;0.98;;
81546;SDS011;71078;48.358;10.960;2023-07-16T13:04:23;3.65;;;1.00;;
81546;SDS011;71078;48.358;10.960;2023-07-16T13:06:44;3.88;;;1.23;;
81546;SDS011;71078;48.358;10.960;2023-07-16T13:09:08;4.72;;;1.20;;
81546;SDS011;71078;48.358;10.960;2023-07-16T13:11:28;4.20;;;1.42;;
81546;SDS011;71078;48.358;10.960;2023-07-16T13:13:48;3.85;;;1.08;;
81546;SDS011;71078;48.358;10.960;2023-07-16T13:16:09;4.18;;;1.10;;
81546;SDS011;71078;48.358;10.960;2023-07-16T13:18:30;3.92;;;0.63;;
81546;SDS011;71078;48.358;10.960;2023-07-16T13:20:50;4.97;;;1.05;;
81546;SDS011;71078;48.358;10.960;2023-07-16T13:23:11;4.47;;;1.13;;
81546;SDS011;71078;48.358;10.960;2023-07-16T13:25:31;3.83;;;1.02;;
81546;SDS011;71078;48.358;10.960;2023-07-16T13:27:52;4.50;;;1.65;;
81546;SDS011;71078;48.358;10.960;2023-07-16T13:30:14;4.47;;;1.48;;
81546;SDS011;71078;48.358;10.960;2023-07-16T13:32:35;4.20;;;1.17;;
81546;SDS011;71078;48.358;10.960;2023-07-16T13:34:56;4.53;;;1.25;;
81546;SDS011;71078;48.358;10.960;2023-07-16T13:37:17;4.20;;;1.23;;
81546;SDS011;71078;48.358;10.960;2023-07-16T13:39:37;9.52;;;1.50;;
81546;SDS011;71078;48.358;10.960;2023-07-16T13:41:58;3.97;;;1.20;;
81546;SDS011;71078;48.358;10.960;2023-07-16T13:44:37;5.88;;;1.30;;
81546;SDS011;71078;48.358;10.960;2023-07-16T13:46:57;4.65;;;1.25;;
81546;SDS011;71078;48.358;10.960;2023-07-16T13:49:18;3.97;;;1.27;;
81546;SDS011;71078;48.358;10.960;2023-07-16T13:51:39;5.00;;;1.50;;
81546;SDS011;71078;48.358;10.960;2023-07-16T13:54:00;5.32;;;1.42;;
81546;SDS011;71078;48.358;10.960;2023-07-16T13:56:20;4.32;;;1.38;;
81546;SDS011;71078;48.358;10.960;2023-07-16T13:58:41;5.00;;;1.42;;
81546;SDS011;71078;48.358;10.960;2023-07-16T14:01:02;4.70;;;1.40;;
81546;SDS011;71078;48.358;10.960;2023-07-16T14:03:23;4.65;;;1.33;;
81546;SDS011;71078;48.358;10.960;2023-07-16T14:05:44;4.15;;;1.25;;
81546;SDS011;71078;48.358;10.960;2023-07-16T14:08:05;4.25;;;1.20;;
81546;SDS011;71078;48.358;10.960;2023-07-16T14:10:26;4.75;;;1.35;;
81546;SDS011;71078;48.358;10.960;2023-07-16T14:12:46;5.03;;;1.15;;
81546;SDS011;71078;48.358;10.960;2023-07-16T14:15:07;5.15;;;1.48;;